Time;durP1;ratioP1;P1;durP2;ratioP2;P2;SDS_P1;SDS_P2;PMS_P1;PMS_P2;Temp;Humidity;BMP_temperature;BMP_pressure;BME280_temperature;BME280_humidity;BME280_pressure;Samples;Min_cycle;Max_cycle;Signal;HPM_P1;HPM_P2
2022/05/09 00:01:17;;;;;;;;;;;;;;;23.86;13.08;101646.84;5137936;27;19921;-72
2022/05/09 00:03:44;;;;;;;;;;;;;;;23.87;12.90;101643.88;5137980;27;20414;-75
2022/05/09 00:06:09;;;;;;;;;;;;;;;23.85;12.94;101653.34;5137492;27;19915;-74
2022/05/09 00:08:34;;;;;;;;;;;;;;;23.85;12.92;101647.91;5138132;27;20006;-75
2022/05/09 00:11:00;;;;;;;;;;;;;;;23.87;12.94;101648.47;5137716;27;20377;-74
2022/05/09 00:13:25;;;;;;;;;;;;;;;23.87;12.99;101651.22;5136886;27;20058;-73
2022/05/09 00:15:51;;;;;;;;;;;;;;;23.86;12.98;101652.31;5137347;27;20384;-73
2022/05/09 00:18:17;;;;;;;;;;;;;;;23.84;13.08;101651.72;5137314;27;19915;-73
2022/05/09 00:20:42;;;;;;;;;;;;;;;23.85;12.85;101656.09;5137329;27;19955;-75
2022/05/09 00:23:07;;;;;;;;;;;;;;;23.84;13.10;101662.63;5138121;27;19916;-73
2022/05/09 00:25:32;;;;;;;;;;;;;;;23.85;12.98;101670.56;5137264;27;19926;-75
2022/05/09 00:27:58;;;;;;;;;;;;;;;23.85;12.98;101661.56;5137558;27;20365;-73
2022/05/09 00:30:23;;;;;;;;;;;;;;;23.84;12.88;101668.91;5137136;27;19915;-75
2022/05/09 00:32:49;;;;;;;;;;;;;;;23.86;12.96;101669.50;5137440;27;19915;-74
2022/05/09 00:35:14;;;;;;;;;;;;;;;23.86;13.01;101671.41;5137075;27;20053;-75
2022/05/09 00:37:40;;;;;;;;;;;;;;;23.85;12.86;101672.47;5137425;27;19964;-73
2022/05/09 00:40:08;;;;;;;;;;;;;;;23.86;13.11;101671.41;5137382;27;20315;-76
2022/05/09 00:42:34;;;;;;;;;;;;;;;23.85;12.80;101680.66;5137210;27;19933;-74
2022/05/09 00:44:59;;;;;;;;;;;;;;;23.87;13.00;101667.59;5137075;27;19915;-75
2022/05/09 00:47:25;;;;;;;;;;;;;;;23.84;13.04;101668.91;5137076;27;20322;-73
2022/05/09 00:49:52;;;;;;;;;;;;;;;23.84;13.08;101671.66;5136934;27;19915;-74
2022/05/09 00:52:29;;;;;;;;;;;;;;;23.85;13.00;101680.66;5118936;27;19959;-74
2022/05/09 00:55:00;;;;;;;;;;;;;;;23.85;13.18;101667.00;5118461;27;19919;-75
2022/05/09 00:57:28;;;;;;;;;;;;;;;23.84;13.08;101677.09;5119213;27;19916;-74
2022/05/09 00:59:55;;;;;;;;;;;;;;;23.85;13.28;101677.94;5136811;27;20002;-76
2022/05/09 01:02:20;;;;;;;;;;;;;;;23.84;13.18;101685.31;5118684;27;19915;-74
2022/05/09 01:04:53;;;;;;;;;;;;;;;23.85;13.08;101680.66;5118035;27;19915;-73
2022/05/09 01:07:18;;;;;;;;;;;;;;;23.83;13.31;101677.34;5136459;27;20298;-73
2022/05/09 01:09:43;;;;;;;;;;;;;;;23.83;13.28;101678.16;5136386;27;20002;-75
2022/05/09 01:12:09;;;;;;;;;;;;;;;23.84;13.25;101679.84;5136545;27;19977;-73
2022/05/09 01:14:34;;;;;;;;;;;;;;;23.84;13.14;101679.84;5136148;27;20257;-73
2022/05/09 01:16:59;;;;;;;;;;;;;;;23.85;13.41;101676.03;5118160;27;19915;-73
2022/05/09 01:19:26;;;;;;;;;;;;;;;23.83;13.45;101672.72;5136989;27;20271;-74
2022/05/09 01:21:51;;;;;;;;;;;;;;;23.84;13.26;101676.28;5118229;27;20307;-73
2022/05/09 01:24:18;;;;;;;;;;;;;;;23.84;13.40;101673.56;5136028;27;19960;-75
2022/05/09 01:26:43;;;;;;;;;;;;;;;23.83;13.53;101671.91;5136330;27;19959;-73
2022/05/09 01:29:12;;;;;;;;;;;;;;;23.82;13.50;101665.63;5136320;27;19915;-75
2022/05/09 01:31:37;;;;;;;;;;;;;;;23.83;13.60;101666.44;5117584;27;20365;-72
2022/05/09 01:34:02;;;;;;;;;;;;;;;23.81;13.46;101664.75;5136005;27;19915;-74
2022/05/09 01:36:30;;;;;;;;;;;;;;;23.80;13.54;101674.00;5135890;27;19919;-72
2022/05/09 01:38:56;;;;;;;;;;;;;;;23.82;13.58;101673.81;5136280;27;19919;-74
2022/05/09 01:41:22;;;;;;;;;;;;;;;23.80;13.51;101671.28;5136195;27;19922;-72
2022/05/09 01:43:48;;;;;;;;;;;;;;;23.81;13.50;101669.41;5135921;27;19916;-75
2022/05/09 01:46:27;;;;;;;;;;;;;;;23.81;13.57;101672.94;5136480;27;19962;-73
2022/05/09 01:51:39;;;;;;;;;;;;;;;23.80;13.52;101673.16;5160441;27;19926;-74
2022/05/09 01:54:04;;;;;;;;;;;;;;;23.80;13.46;101682.19;5159790;27;19915;-75
2022/05/09 01:56:30;;;;;;;;;;;;;;;23.81;13.60;101672.94;5160398;27;19904;-73
2022/05/09 01:58:56;;;;;;;;;;;;;;;23.80;13.52;101681.34;5160532;27;19911;-74
2022/05/09 02:01:21;;;;;;;;;;;;;;;23.80;13.59;101679.47;5160514;27;19903;-73
2022/05/09 02:03:46;;;;;;;;;;;;;;;23.80;13.52;101679.47;5160568;27;20038;-75
2022/05/09 02:06:12;;;;;;;;;;;;;;;23.81;13.61;101681.13;5160497;27;19915;-73
2022/05/09 02:08:37;;;;;;;;;;;;;;;23.83;13.61;101688.28;5159628;27;19976;-75
2022/05/09 02:11:03;;;;;;;;;;;;;;;23.82;13.66;101692.91;5160575;27;19933;-74
2022/05/09 02:13:28;;;;;;;;;;;;;;;23.81;13.53;101688.50;5160346;27;19911;-75
2022/05/09 02:15:53;;;;;;;;;;;;;;;23.80;13.57;101695.84;5160320;27;19903;-73
2022/05/09 02:18:18;;;;;;;;;;;;;;;23.80;13.70;101695.00;5160178;27;19910;-74
2022/05/09 02:20:46;;;;;;;;;;;;;;;23.81;13.65;101694.78;5160422;27;19923;-75
2022/05/09 02:23:13;;;;;;;;;;;;;;;23.81;13.50;101692.06;5159675;27;19900;-75
2022/05/09 02:25:39;;;;;;;;;;;;;;;23.81;13.58;101696.69;5159717;27;19963;-74
2022/05/09 02:28:09;;;;;;;;;;;;;;;23.79;13.74;101699.63;5151914;27;20069;-76
2022/05/09 02:30:35;;;;;;;;;;;;;;;23.80;13.59;101695.00;5136271;27;20007;-74
2022/05/09 02:33:01;;;;;;;;;;;;;;;23.80;13.78;101686.81;5135715;27;19923;-75
2022/05/09 02:35:26;;;;;;;;;;;;;;;23.82;13.71;101698.38;5136433;27;19940;-75
2022/05/09 02:37:54;;;;;;;;;;;;;;;23.80;13.63;101690.38;5135655;27;20430;-76
2022/05/09 02:40:20;;;;;;;;;;;;;;;23.80;13.65;101695.84;5135140;28;20288;-74
2022/05/09 02:42:45;;;;;;;;;;;;;;;23.83;13.77;101699.19;5135268;28;20002;-75
2022/05/09 02:45:10;;;;;;;;;;;;;;;23.82;13.72;101695.66;5134996;28;20419;-74
2022/05/09 02:47:36;;;;;;;;;;;;;;;23.81;13.93;101694.78;5135018;28;19916;-76
2022/05/09 02:50:03;;;;;;;;;;;;;;;23.81;13.99;101692.06;5134820;28;19916;-74
2022/05/09 02:52:29;;;;;;;;;;;;;;;23.80;13.75;101695.84;5135414;28;19924;-76
2022/05/09 02:54:54;;;;;;;;;;;;;;;23.80;13.94;101698.59;5134996;28;20365;-74
2022/05/09 02:57:19;;;;;;;;;;;;;;;23.80;13.80;101695.84;5135025;28;19976;-74
2022/05/09 02:59:44;;;;;;;;;;;;;;;23.80;13.92;101695.84;5135080;28;20022;-75
2022/05/09 03:02:10;;;;;;;;;;;;;;;23.81;13.92;101702.97;5134974;28;19984;-72
2022/05/09 03:04:41;;;;;;;;;;;;;;;23.86;13.87;101699.53;5134903;28;20332;-74
2022/05/09 03:07:11;;;;;;;;;;;;;;;23.90;13.99;101697.94;5134732;28;19920;-72
2022/05/09 03:09:36;;;;;;;;;;;;;;;23.93;13.88;101705.66;5134867;28;19919;-74
2022/05/09 03:12:04;;;;;;;;;;;;;;;23.99;13.77;101703.84;5134792;28;19916;-72
2022/05/09 03:14:30;;;;;;;;;;;;;;;24.03;13.92;101701.47;5134457;28;19998;-73
2022/05/09 03:16:55;;;;;;;;;;;;;;;24.02;13.80;101703.34;5134557;28;20003;-73
2022/05/09 03:19:21;;;;;;;;;;;;;;;24.03;13.93;101705.03;5134448;28;19916;-75
2022/05/09 03:21:48;;;;;;;;;;;;;;;24.07;14.19;101706.19;5134593;28;20358;-73
2022/05/09 03:24:13;;;;;;;;;;;;;;;24.10;13.86;101715.78;5134375;28;19949;-74
2022/05/09 03:26:38;;;;;;;;;;;;;;;24.13;13.93;101713.41;5134641;28;20365;-74
2022/05/09 03:29:03;;;;;;;;;;;;;;;24.15;14.10;101704.97;5134248;28;19950;-75
2022/05/09 03:31:30;;;;;;;;;;;;;;;24.18;13.93;101712.63;5134561;28;19960;-73
2022/05/09 03:33:55;;;;;;;;;;;;;;;24.18;13.85;101713.50;5134592;28;20364;-74
2022/05/09 03:36:20;;;;;;;;;;;;;;;24.22;14.01;101715.72;5134637;28;19976;-74
2022/05/09 03:38:46;;;;;;;;;;;;;;;24.23;14.06;101717.38;5134233;28;19915;-74
2022/05/09 03:41:11;;;;;;;;;;;;;;;24.27;14.08;101713.09;5134626;28;19923;-73
2022/05/09 03:43:36;;;;;;;;;;;;;;;24.29;13.90;101711.75;5134612;28;19915;-73
2022/05/09 03:46:02;;;;;;;;;;;;;;;24.33;14.07;101709.34;5134475;27;20060;-74
2022/05/09 03:48:27;;;;;;;;;;;;;;;24.33;14.10;101709.34;5137235;27;19923;-74
2022/05/09 03:50:52;;;;;;;;;;;;;;;24.33;14.04;101712.91;5138194;27;20020;-74
2022/05/09 03:53:17;;;;;;;;;;;;;;;24.32;14.38;101707.72;5138841;27;19916;-73
2022/05/09 03:55:43;;;;;;;;;;;;;;;24.41;14.20;101706.22;5138157;27;20406;-73
2022/05/09 03:58:08;;;;;;;;;;;;;;;24.44;13.96;101713.06;5138300;27;19990;-75
2022/05/09 04:00:35;;;;;;;;;;;;;;;24.44;14.18;101711.19;5138044;27;19915;-75
2022/05/09 04:03:00;;;;;;;;;;;;;;;24.44;14.21;101705.72;5137884;27;19916;-74
2022/05/09 04:05:30;;;;;;;;;;;;;;;24.47;14.17;101704.38;5137640;27;20425;-75
2022/05/09 04:07:57;;;;;;;;;;;;;;;24.50;14.18;101715.63;5138345;27;19932;-73
2022/05/09 04:10:23;;;;;;;;;;;;;;;24.51;14.08;101711.03;5137988;27;19939;-75
2022/05/09 04:12:48;;;;;;;;;;;;;;;24.54;14.11;101722.31;5137845;27;20010;-73
2022/05/09 04:17:57;;;;;;;;;;;;;;;24.59;14.09;101715.25;5137985;27;19980;-74
2022/05/09 04:20:23;;;;;;;;;;;;;;;24.61;14.28;101707.63;5137513;27;20345;-74
2022/05/09 04:22:48;;;;;;;;;;;;;;;24.62;14.24;101712.84;5137553;27;20417;-73
2022/05/09 04:25:15;;;;;;;;;;;;;;;24.61;14.19;101710.38;5137253;27;20395;-73
2022/05/09 04:27:40;;;;;;;;;;;;;;;24.68;14.14;101719.22;5137514;27;19938;-73
2022/05/09 04:30:08;;;;;;;;;;;;;;;24.68;14.01;101717.34;5137139;27;20362;-75
2022/05/09 04:32:33;;;;;;;;;;;;;;;24.71;14.15;101718.72;5137373;27;19947;-72
2022/05/09 04:34:59;;;;;;;;;;;;;;;24.71;14.18;101719.53;5137259;27;20376;-74
2022/05/09 04:37:24;;;;;;;;;;;;;;;24.73;14.27;101719.28;5137321;27;19936;-74
2022/05/09 04:39:50;;;;;;;;;;;;;;;24.74;14.01;101719.03;5137315;27;20273;-73
2022/05/09 04:42:15;;;;;;;;;;;;;;;24.78;14.16;101721.28;5136817;27;20022;-74
2022/05/09 04:44:40;;;;;;;;;;;;;;;24.80;14.10;101719.13;5137396;27;19915;-73
2022/05/09 04:47:07;;;;;;;;;;;;;;;24.78;13.99;101710.34;5137374;27;19968;-74
2022/05/09 04:49:32;;;;;;;;;;;;;;;24.80;14.03;101725.44;5118749;27;20430;-74
2022/05/09 04:51:57;;;;;;;;;;;;;;;24.81;14.12;101720.78;5137017;27;19916;-74
2022/05/09 04:54:23;;;;;;;;;;;;;;;24.85;14.11;101721.94;5137125;27;20273;-74
2022/05/09 04:56:48;;;;;;;;;;;;;;;24.86;14.11;101724.41;5136595;27;20039;-73
2022/05/09 04:59:13;;;;;;;;;;;;;;;24.88;13.98;101722.25;5136390;27;19960;-75
2022/05/09 05:01:39;;;;;;;;;;;;;;;24.94;14.17;101725.91;5136573;27;20409;-73
2022/05/09 05:04:05;;;;;;;;;;;;;;;24.95;13.96;101719.34;5136886;27;19943;-76
2022/05/09 05:06:31;;;;;;;;;;;;;;;24.96;13.85;101723.75;5136267;27;20358;-74
2022/05/09 05:08:56;;;;;;;;;;;;;;;25.00;14.02;101715.88;5136505;27;19976;-74
2022/05/09 05:11:22;;;;;;;;;;;;;;;25.01;13.89;101720.22;5136147;27;20380;-73
2022/05/09 05:13:47;;;;;;;;;;;;;;;25.02;14.05;101716.44;5136313;27;19916;-74
2022/05/09 05:16:12;;;;;;;;;;;;;;;25.05;13.77;101722.22;5136258;27;19915;-73
2022/05/09 05:18:37;;;;;;;;;;;;;;;25.08;13.73;101720.91;5136404;27;19915;-73
2022/05/09 05:21:09;;;;;;;;;;;;;;;25.10;13.62;101727.75;5136291;27;19922;-73
2022/05/09 05:23:35;;;;;;;;;;;;;;;25.16;13.76;101723.19;5136422;27;19926;-72
2022/05/09 05:26:00;;;;;;;;;;;;;;;25.16;13.88;101725.91;5136065;27;19919;-73
2022/05/09 05:28:26;;;;;;;;;;;;;;;25.14;13.62;101719.06;5136168;27;19915;-73
2022/05/09 05:30:53;;;;;;;;;;;;;;;25.18;13.61;101725.66;5135986;27;19960;-73
2022/05/09 05:33:18;;;;;;;;;;;;;;;25.23;13.51;101729.31;5136122;27;19920;-74
2022/05/09 05:35:43;;;;;;;;;;;;;;;25.27;13.53;101735.97;5136074;27;19928;-74
2022/05/09 05:38:09;;;;;;;;;;;;;;;25.29;13.62;101739.25;5136202;27;19915;-74
2022/05/09 05:40:34;;;;;;;;;;;;;;;25.30;13.53;101735.47;5136155;27;19924;-74
2022/05/09 05:42:59;;;;;;;;;;;;;;;25.29;13.49;101733.78;5135904;27;19955;-73
2022/05/09 05:45:24;;;;;;;;;;;;;;;25.34;13.40;101741.25;5135605;27;20010;-75
2022/05/09 05:47:50;;;;;;;;;;;;;;;25.33;13.49;101730.56;5136118;27;19950;-75
2022/05/09 05:50:16;;;;;;;;;;;;;;;25.37;13.47;101735.28;5135642;27;20350;-74
2022/05/09 05:52:42;;;;;;;;;;;;;;;25.36;13.54;101739.06;5135937;27;19915;-74
2022/05/09 05:55:07;;;;;;;;;;;;;;;25.40;13.73;101723.78;5135718;27;20388;-73
2022/05/09 05:57:33;;;;;;;;;;;;;;;25.47;13.47;101729.06;5135331;27;19915;-75
2022/05/09 06:00:12;;;;;;;;;;;;;;;25.51;13.78;101729.38;5136061;27;19916;-76
2022/05/09 06:02:38;;;;;;;;;;;;;;;25.53;13.74;101727.25;5135421;27;19922;-75
2022/05/09 06:05:05;;;;;;;;;;;;;;;25.52;13.72;101726.41;5136270;27;19990;-72
2022/05/09 06:07:30;;;;;;;;;;;;;;;25.53;13.90;101730.81;5135337;27;19923;-73
2022/05/09 06:09:55;;;;;;;;;;;;;;;25.48;13.64;101730.75;5134853;27;19935;-74
2022/05/09 06:12:21;;;;;;;;;;;;;;;25.47;13.43;101731.81;5135368;27;20384;-73
2022/05/09 06:15:24;;;;;;;;;;;;;;;25.48;13.50;101730.75;5135848;27;19923;-75
2022/05/09 06:17:35;;;;;;;;;;;;;;;25.50;13.45;101723.09;5135223;27;20262;-73
2022/05/09 06:20:00;;;;;;;;;;;;;;;25.57;13.38;101726.47;5135487;27;19915;-72
2022/05/09 06:22:26;;;;;;;;;;;;;;;25.54;13.45;101735.19;5135637;27;20384;-73
2022/05/09 06:25:01;;;;;;;;;;;;;;;25.53;13.00;101739.03;5134962;27;19972;-76
2022/05/09 06:27:26;;;;;;;;;;;;;;;25.52;13.26;101731.06;5135158;27;19942;-74
2022/05/09 06:29:51;;;;;;;;;;;;;;;25.54;13.23;101732.44;5135128;27;19915;-73
2022/05/09 06:32:18;;;;;;;;;;;;;;;25.56;13.12;101733.03;5135118;27;19947;-75
2022/05/09 06:34:44;;;;;;;;;;;;;;;25.58;13.48;101730.88;5135115;27;20019;-73
2022/05/09 06:37:09;;;;;;;;;;;;;;;25.59;13.46;101732.50;5135347;27;20401;-73
2022/05/09 06:39:35;;;;;;;;;;;;;;;25.59;13.36;101726.22;5134536;27;20006;-75
2022/05/09 06:42:00;;;;;;;;;;;;;;;25.62;13.21;101737.47;5134719;27;19926;-73
2022/05/09 06:44:25;;;;;;;;;;;;;;;25.72;13.23;101722.25;5135192;28;19920;-73
2022/05/09 06:46:50;;;;;;;;;;;;;;;25.66;13.24;101726.84;5135069;28;19923;-71
2022/05/09 06:49:15;;;;;;;;;;;;;;;25.69;13.11;101731.81;5135571;28;20369;-73
2022/05/09 06:51:42;;;;;;;;;;;;;;;25.69;13.34;101726.31;5135398;28;19938;-73
2022/05/09 06:54:07;;;;;;;;;;;;;;;25.72;13.27;101727.75;5134698;28;20336;-72
2022/05/09 06:56:32;;;;;;;;;;;;;;;25.76;13.14;101737.09;5135372;28;19965;-74
2022/05/09 06:58:58;;;;;;;;;;;;;;;25.78;13.25;101740.38;5135355;28;19916;-73
2022/05/09 07:01:23;;;;;;;;;;;;;;;25.80;13.18;101727.25;5134845;28;19915;-74
2022/05/09 07:03:48;;;;;;;;;;;;;;;25.80;13.24;101739.06;5135412;28;19927;-73
2022/05/09 07:06:13;;;;;;;;;;;;;;;25.80;12.99;101730.84;5135022;28;20377;-72
2022/05/09 07:08:39;;;;;;;;;;;;;;;25.79;13.00;101736.56;5135340;28;20333;-74
2022/05/09 07:11:04;;;;;;;;;;;;;;;25.80;13.22;101738.22;5134837;28;19965;-75
2022/05/09 07:13:30;;;;;;;;;;;;;;;25.81;12.98;101728.91;5134744;28;20345;-75
2022/05/09 07:15:57;;;;;;;;;;;;;;;25.78;13.08;101726.69;5135134;28;19922;-73
2022/05/09 07:18:25;;;;;;;;;;;;;;;25.86;13.06;101724.31;5135642;28;19968;-74
2022/05/09 07:20:50;;;;;;;;;;;;;;;25.92;12.73;101736.16;5136792;27;19932;-74
2022/05/09 07:23:16;;;;;;;;;;;;;;;25.91;13.06;101730.94;5139974;27;20383;-73
2022/05/09 07:25:41;;;;;;;;;;;;;;;25.88;12.88;101740.50;5138499;27;19919;-74
2022/05/09 07:28:06;;;;;;;;;;;;;;;25.85;12.94;101730.03;5138230;27;19915;-73
2022/05/09 07:30:32;;;;;;;;;;;;;;;25.95;12.66;101730.19;5138343;27;19919;-75
2022/05/09 07:32:57;;;;;;;;;;;;;;;25.95;13.02;101727.44;5137863;27;19938;-75
2022/05/09 07:35:22;;;;;;;;;;;;;;;25.97;12.68;101732.66;5138419;27;19942;-73
2022/05/09 07:37:48;;;;;;;;;;;;;;;25.98;12.55;101734.34;5138786;27;19948;-75
2022/05/09 07:40:14;;;;;;;;;;;;;;;26.03;12.71;101731.66;5138454;27;20388;-75
2022/05/09 07:42:40;;;;;;;;;;;;;;;26.03;12.45;101737.13;5139017;27;19915;-73
2022/05/09 07:45:06;;;;;;;;;;;;;;;26.03;12.50;101737.94;5138281;27;20021;-74
2022/05/09 07:47:31;;;;;;;;;;;;;;;26.08;12.60;101739.06;5137601;27;20021;-74
2022/05/09 07:49:56;;;;;;;;;;;;;;;26.07;12.46;101738.25;5137697;27;19968;-73
2022/05/09 07:52:22;;;;;;;;;;;;;;;26.04;12.53;101741.50;5137646;27;19992;-74
2022/05/09 07:54:48;;;;;;;;;;;;;;;26.08;12.52;101750.88;5138192;27;19922;-76
2022/05/09 07:57:13;;;;;;;;;;;;;;;26.05;12.38;101738.50;5138237;27;19950;-74
2022/05/09 07:59:39;;;;;;;;;;;;;;;26.11;12.08;101733.06;5138652;27;19957;-72
2022/05/09 08:02:04;;;;;;;;;;;;;;;26.13;12.37;101741.84;5139077;27;19991;-75
2022/05/09 08:04:30;;;;;;;;;;;;;;;26.15;11.92;101745.19;5138541;27;20380;-75
2022/05/09 08:06:55;;;;;;;;;;;;;;;26.15;12.03;101745.19;5139515;27;19926;-72
2022/05/09 08:09:20;;;;;;;;;;;;;;;26.14;12.33;101747.09;5138570;27;20396;-73
2022/05/09 08:11:46;;;;;;;;;;;;;;;26.15;12.22;101740.53;5139262;27;19919;-73
2022/05/09 08:14:11;;;;;;;;;;;;;;;26.11;11.80;101742.13;5138524;27;20258;-74
2022/05/09 08:16:36;;;;;;;;;;;;;;;26.16;11.97;101736.69;5119465;27;20018;-73
2022/05/09 08:19:02;;;;;;;;;;;;;;;26.13;11.68;101741.84;5137565;27;19915;-74
2022/05/09 08:21:27;;;;;;;;;;;;;;;26.13;11.99;101737.22;5137035;27;20421;-76
2022/05/09 08:23:53;;;;;;;;;;;;;;;26.11;11.71;101735.81;5137017;27;19929;-72
2022/05/09 08:26:21;;;;;;;;;;;;;;;26.16;11.80;101741.34;5136799;27;20426;-73
2022/05/09 08:28:47;;;;;;;;;;;;;;;26.15;11.68;101750.66;5137295;27;20052;-74
2022/05/09 08:31:16;;;;;;;;;;;;;;;26.17;11.71;101753.97;5136925;27;20269;-74
2022/05/09 08:33:42;;;;;;;;;;;;;;;26.17;11.56;101749.31;5136402;27;19984;-73
2022/05/09 08:36:09;;;;;;;;;;;;;;;26.16;11.73;101744.91;5136940;27;20379;-73
2022/05/09 08:38:34;;;;;;;;;;;;;;;26.17;11.47;101743.00;5136861;27;19926;-75
2022/05/09 08:40:59;;;;;;;;;;;;;;;26.19;11.59;101747.13;5137051;27;19919;-74
2022/05/09 08:43:29;;;;;;;;;;;;;;;26.19;11.46;101736.16;5137320;27;20415;-74
2022/05/09 08:46:00;;;;;;;;;;;;;;;26.22;11.53;101740.31;5136920;27;19998;-73
2022/05/09 08:48:44;;;;;;;;;;;;;;;26.22;11.59;101734.84;5117782;27;19919;-73
2022/05/09 08:51:10;;;;;;;;;;;;;;;26.20;11.42;101740.56;5118205;27;19953;-74
2022/05/09 08:53:36;;;;;;;;;;;;;;;26.22;11.51;101734.84;5136359;27;19966;-75
2022/05/09 08:56:01;;;;;;;;;;;;;;;26.14;11.56;101738.84;5118424;27;20357;-75
2022/05/09 08:58:31;;;;;;;;;;;;;;;26.21;11.65;101744.94;5118064;27;20369;-76
2022/05/09 09:00:59;;;;;;;;;;;;;;;26.23;11.54;101747.44;5136878;27;19965;-73
2022/05/09 09:03:25;;;;;;;;;;;;;;;26.24;11.52;101738.13;5118319;27;19946;-74
2022/05/09 09:05:52;;;;;;;;;;;;;;;26.28;11.53;101739.25;5117522;27;19915;-73
2022/05/09 09:08:29;;;;;;;;;;;;;;;26.27;11.70;101748.59;5117934;27;19924;-77
2022/05/09 09:11:16;;;;;;;;;;;;;;;26.27;11.66;101748.59;5135806;27;20327;-77
2022/05/09 09:14:00;;;;;;;;;;;;;;;26.27;11.48;101754.06;5117745;27;19991;-74
2022/05/09 09:16:33;;;;;;;;;;;;;;;26.24;11.66;101746.34;5136460;27;19919;-76
2022/05/09 09:19:17;;;;;;;;;;;;;;;26.22;11.75;101745.81;5135940;27;19922;-75
2022/05/09 09:22:01;;;;;;;;;;;;;;;26.24;11.74;101751.84;5135760;27;19915;-74
2022/05/09 09:24:29;;;;;;;;;;;;;;;26.20;11.97;101745.25;5135219;27;19962;-74
2022/05/09 09:27:27;;;;;;;;;;;;;;;26.20;12.30;101731.53;5135680;27;19923;-75
2022/05/09 09:29:54;;;;;;;;;;;;;;;26.16;12.32;101736.69;5052137;28;19913;-75
2022/05/09 09:32:20;;;;;;;;;;;;;;;26.22;12.29;101745.81;5035365;28;19947;-74
2022/05/09 09:35:06;;;;;;;;;;;;;;;26.29;12.29;101751.88;5052634;28;20011;-73
2022/05/09 09:37:34;;;;;;;;;;;;;;;26.29;12.49;101751.88;5052519;28;19924;-75
2022/05/09 09:39:59;;;;;;;;;;;;;;;26.37;12.65;101754.16;5052117;28;20132;-74
2022/05/09 09:42:24;;;;;;;;;;;;;;;26.35;12.85;101748.09;5051981;28;20013;-73
2022/05/09 09:44:51;;;;;;;;;;;;;;;26.31;12.63;101751.63;5050929;28;19916;-74
2022/05/09 09:47:19;;;;;;;;;;;;;;;26.32;12.79;101743.16;5052128;28;19917;-74
2022/05/09 09:49:47;;;;;;;;;;;;;;;26.37;12.70;101742.34;5051806;28;20101;-75
2022/05/09 09:52:22;;;;;;;;;;;;;;;26.42;12.99;101745.13;5051793;28;19928;-74
2022/05/09 09:54:50;;;;;;;;;;;;;;;26.35;13.04;101745.34;5035261;28;19924;-73
2022/05/09 09:57:17;;;;;;;;;;;;;;;26.32;13.17;101756.84;5052014;28;19921;-72
2022/05/09 09:59:43;;;;;;;;;;;;;;;26.36;13.05;101741.53;5035444;28;19924;-74
2022/05/09 10:02:10;;;;;;;;;;;;;;;26.38;13.16;101738.53;5051629;28;19928;-75
2022/05/09 10:04:36;;;;;;;;;;;;;;;26.36;13.37;101741.53;5064586;27;19922;-76
2022/05/09 10:07:05;;;;;;;;;;;;;;;26.40;13.22;101741.84;5135129;27;19923;-74
2022/05/09 10:09:38;;;;;;;;;;;;;;;26.46;13.32;101738.06;5134929;27;19919;-73
2022/05/09 10:12:22;;;;;;;;;;;;;;;26.50;13.27;101721.91;5134377;27;19960;-73
2022/05/09 10:14:47;;;;;;;;;;;;;;;26.52;13.30;101727.94;5134790;27;19969;-74
2022/05/09 10:17:27;;;;;;;;;;;;;;;26.48;13.17;101722.16;5135240;27;19920;-74
2022/05/09 10:19:54;;;;;;;;;;;;;;;26.43;13.25;101728.44;5134495;27;19922;-74
2022/05/09 10:25:32;;;;;;;;;;;;;;;26.39;13.55;101729.22;5134669;27;19943;-76
2022/05/09 10:28:05;;;;;;;;;;;;;;;26.40;13.27;101728.94;5116669;27;19919;-74
2022/05/09 10:30:34;;;;;;;;;;;;;;;26.49;13.39;101715.59;5134452;27;20121;-74
2022/05/09 10:33:11;;;;;;;;;;;;;;;26.51;13.47;101709.84;5134061;27;20369;-74
2022/05/09 10:36:08;;;;;;;;;;;;;;;26.53;13.46;101713.16;5134516;27;19915;-74
2022/05/09 10:38:44;;;;;;;;;;;;;;;26.64;13.25;101714.91;5051391;28;21634;-76
2022/05/09 10:41:16;;;;;;;;;;;;;;;26.55;13.39;101711.81;5034550;28;19917;-75
2022/05/09 10:43:45;;;;;;;;;;;;;;;26.61;13.32;101721.72;5034966;28;20375;-76
2022/05/09 10:46:11;;;;;;;;;;;;;;;26.57;13.26;101714.28;5051113;28;19956;-76
2022/05/09 10:48:38;;;;;;;;;;;;;;;26.59;13.53;101712.09;5051476;28;19990;-74
2022/05/09 10:51:10;;;;;;;;;;;;;;;26.55;13.37;101711.81;5034325;28;19929;-73
2022/05/09 10:53:54;;;;;;;;;;;;;;;26.63;13.11;101707.78;5034532;28;19921;-73
2022/05/09 10:56:35;;;;;;;;;;;;;;;26.65;13.34;101713.81;5052509;28;19917;-75
2022/05/09 10:59:02;;;;;;;;;;;;;;;26.60;13.17;101705.53;5055317;28;19939;-75
2022/05/09 11:01:33;;;;;;;;;;;;;;;26.60;13.15;101711.03;5054977;28;19923;-74
2022/05/09 11:03:58;;;;;;;;;;;;;;;26.54;13.03;101704.66;5055294;28;19925;-74
2022/05/09 11:06:24;;;;;;;;;;;;;;;26.56;13.04;101713.47;5038401;28;19921;-73
2022/05/09 11:09:07;;;;;;;;;;;;;;;26.58;13.00;101696.75;5054876;28;20423;-75
2022/05/09 11:11:38;;;;;;;;;;;;;;;26.58;12.81;101704.97;5054848;28;20004;-75
2022/05/09 11:14:03;;;;;;;;;;;;;;;26.58;12.73;101704.97;5067460;27;19959;-75
2022/05/09 11:16:36;;;;;;;;;;;;;;;26.58;12.84;101699.50;5138050;27;20016;-73
2022/05/09 11:19:20;;;;;;;;;;;;;;;26.51;12.88;101701.63;5138088;27;20391;-74
2022/05/09 11:22:00;;;;;;;;;;;;;;;26.52;12.71;101695.88;5139080;27;20009;-75
2022/05/09 11:24:25;;;;;;;;;;;;;;;26.56;12.68;101698.91;5119673;27;20034;-74
2022/05/09 11:26:50;;;;;;;;;;;;;;;26.58;12.77;101696.75;5138441;27;19967;-74
2022/05/09 11:29:18;;;;;;;;;;;;;;;26.55;12.70;101695.34;5138179;27;20353;-75
2022/05/09 11:31:56;;;;;;;;;;;;;;;26.53;12.72;101691.25;5138327;27;19916;-75
2022/05/09 11:34:26;;;;;;;;;;;;;;;26.51;12.49;101688.75;5119797;27;19923;-73
2022/05/09 11:36:51;;;;;;;;;;;;;;;26.48;12.65;101694.75;5138579;27;19923;-73
2022/05/09 11:39:35;;;;;;;;;;;;;;;26.42;12.79;101688.41;5138390;27;19916;-75
2022/05/09 11:43:27;;;;;;;;;;;;;;;26.49;12.69;101687.34;5138422;27;19923;-74
2022/05/09 11:44:49;;;;;;;;;;;;;;;26.45;12.98;101686.25;5137747;27;19919;-72
2022/05/09 11:47:44;;;;;;;;;;;;;;;26.46;12.84;101691.47;5119717;27;19916;-75
2022/05/09 11:50:12;;;;;;;;;;;;;;;26.48;13.07;101686.53;5054759;28;20035;-77
2022/05/09 11:52:39;;;;;;;;;;;;;;;26.48;13.15;101688.47;5037631;28;19917;-74
2022/05/09 11:55:06;;;;;;;;;;;;;;;26.48;13.40;101683.78;5054286;28;19923;-73
2022/05/09 11:57:32;;;;;;;;;;;;;;;26.47;13.21;101681.31;5055052;28;20371;-74
2022/05/09 11:59:58;;;;;;;;;;;;;;;26.47;13.22;101684.06;5054565;28;19925;-74
2022/05/09 12:02:44;;;;;;;;;;;;;;;26.49;13.14;101679.13;5054547;28;19939;-74
2022/05/09 12:05:25;;;;;;;;;;;;;;;26.42;12.92;101674.72;5054392;28;19924;-73
2022/05/09 12:07:54;;;;;;;;;;;;;;;26.46;12.85;101674.16;5053861;28;20401;-73
2022/05/09 12:10:20;;;;;;;;;;;;;;;26.45;13.03;101676.09;5055174;28;19920;-74
2022/05/09 12:12:45;;;;;;;;;;;;;;;26.47;12.97;101670.34;5054438;28;19948;-73
2022/05/09 12:15:30;;;;;;;;;;;;;;;26.50;12.89;101658.88;5053842;28;19939;-73
2022/05/09 12:17:58;;;;;;;;;;;;;;;26.49;12.70;101662.69;5053355;28;20383;-74
2022/05/09 12:20:26;;;;;;;;;;;;;;;26.48;12.79;101667.34;5053639;28;20307;-75
2022/05/09 12:22:52;;;;;;;;;;;;;;;26.35;13.13;101663.13;5053512;28;20425;-75
2022/05/09 12:25:43;;;;;;;;;;;;;;;26.43;13.22;101654.44;5053404;28;19921;-74
2022/05/09 12:28:18;;;;;;;;;;;;;;;26.46;13.03;101657.72;5033773;28;20368;-74
2022/05/09 12:30:52;;;;;;;;;;;;;;;26.46;13.21;101663.19;5034026;28;19917;-74
2022/05/09 12:33:18;;;;;;;;;;;;;;;26.46;12.97;101668.69;5033900;28;19917;-74
2022/05/09 12:35:43;;;;;;;;;;;;;;;26.47;13.07;101653.91;5033593;28;19940;-74
2022/05/09 12:38:12;;;;;;;;;;;;;;;26.48;13.01;101655.56;5033803;28;19924;-73
2022/05/09 12:40:37;;;;;;;;;;;;;;;26.50;12.84;101654.19;5033358;28;19924;-73
2022/05/09 12:43:02;;;;;;;;;;;;;;;26.50;13.07;101650.63;5016799;28;19917;-73
2022/05/09 12:45:28;;;;;;;;;;;;;;;26.51;13.19;101652.28;5033374;28;19923;-73
2022/05/09 12:47:53;;;;;;;;;;;;;;;26.51;13.21;101639.41;5033572;28;19996;-74